createdAt,value
2023-01-20T00:02:23.064Z,13.13
2023-01-20T00:04:53.658Z,13.60
2023-01-20T00:07:25.007Z,12.82
2023-01-20T00:09:56.232Z,10.85
2023-01-20T00:12:27.119Z,13.23
2023-01-20T00:14:57.332Z,12.27
2023-01-20T00:17:29.962Z,15.65
2023-01-20T00:20:02.845Z,14.70
2023-01-20T00:22:33.659Z,11.00
2023-01-20T00:25:03.997Z,12.32
2023-01-20T00:27:34.502Z,11.93
2023-01-20T00:30:06.534Z,11.20
2023-01-20T00:32:45.731Z,11.93
2023-01-20T00:35:19.017Z,14.30
2023-01-20T00:37:49.897Z,12.10
2023-01-20T00:40:20.991Z,18.77
2023-01-20T00:42:51.356Z,14.88
2023-01-20T00:45:22.083Z,15.88
2023-01-20T00:47:52.579Z,13.60
2023-01-20T00:50:23.174Z,12.32
2023-01-20T00:52:53.668Z,28.15
2023-01-20T00:55:24.525Z,11.70
2023-01-20T00:57:55.141Z,15.43
2023-01-20T01:00:26.068Z,13.10
2023-01-20T01:02:57.219Z,12.02
2023-01-20T01:05:28.292Z,10.95
2023-01-20T01:07:58.982Z,12.10
2023-01-20T01:10:29.818Z,10.27
2023-01-20T01:13:06.243Z,13.43
2023-01-20T01:15:39.283Z,10.63
2023-01-20T01:18:09.563Z,11.50
2023-01-20T01:20:40.791Z,7.78
2023-01-20T01:23:11.382Z,10.32
2023-01-20T01:25:44.815Z,11.27
2023-01-20T01:28:15.329Z,8.20
2023-01-20T01:30:46.760Z,10.32
2023-01-20T01:33:17.409Z,8.60
2023-01-20T01:35:59.664Z,8.82
2023-01-20T01:38:30.687Z,11.15
2023-01-20T01:41:01.961Z,10.40
2023-01-20T01:43:35.514Z,8.98
2023-01-20T01:46:06.713Z,9.50
2023-01-20T01:48:46.237Z,13.40
2023-01-20T01:51:20.956Z,11.07
2023-01-20T01:53:58.649Z,11.85
2023-01-20T01:56:31.356Z,10.40
2023-01-20T01:59:03.212Z,6.68
2023-01-20T02:01:38.328Z,11.05
2023-01-20T02:04:27.367Z,7.88
2023-01-20T02:07:10.819Z,15.80
2023-01-20T02:09:41.666Z,12.43
2023-01-20T02:12:15.629Z,16.00
2023-01-20T02:14:52.189Z,11.88
2023-01-20T02:17:32.827Z,13.30
2023-01-20T02:20:15.755Z,11.07
2023-01-20T02:23:15.344Z,16.17
2023-01-20T02:26:10.862Z,14.18
2023-01-20T02:29:04.010Z,13.68
2023-01-20T02:31:55.026Z,12.77
2023-01-20T02:34:34.627Z,11.73
2023-01-20T02:37:11.990Z,15.48
2023-01-20T02:39:46.393Z,15.40
2023-01-20T02:42:47.388Z,15.45
2023-01-20T02:45:25.710Z,16.70
2023-01-20T02:48:03.449Z,17.95
2023-01-20T02:50:42.288Z,11.15
2023-01-20T02:53:14.728Z,17.27
2023-01-20T02:55:48.779Z,12.23
2023-01-20T02:58:29.025Z,13.52
2023-01-20T03:01:16.227Z,15.63
2023-01-20T03:03:48.826Z,14.20
2023-01-20T03:06:22.788Z,14.55
2023-01-20T03:08:54.911Z,13.90
2023-01-20T03:11:26.023Z,13.45
2023-01-20T03:14:24.522Z,9.27
2023-01-20T03:16:55.322Z,13.85
2023-01-20T03:19:25.734Z,12.27
2023-01-20T03:21:56.525Z,11.27
2023-01-20T03:24:29.125Z,8.48
2023-01-20T03:27:00.400Z,12.45
2023-01-20T03:29:31.622Z,7.18
2023-01-20T03:32:04.083Z,12.45
2023-01-20T03:34:37.219Z,10.90
2023-01-20T03:37:08.653Z,12.45
2023-01-20T03:39:40.828Z,9.63
2023-01-20T03:42:30.044Z,12.70
2023-01-20T03:45:50.999Z,12.38
2023-01-20T03:48:43.014Z,12.25
2023-01-20T03:51:22.876Z,10.65
2023-01-20T03:54:00.846Z,11.95
2023-01-20T03:56:51.171Z,11.15
2023-01-20T03:59:23.069Z,10.50
2023-01-20T04:01:53.660Z,13.70
2023-01-20T04:04:24.400Z,13.68
2023-01-20T04:06:55.445Z,10.30
2023-01-20T04:09:30.110Z,13.88
2023-01-20T04:12:01.152Z,8.77
2023-01-20T04:14:31.727Z,13.23
2023-01-20T04:17:02.393Z,9.30
2023-01-20T04:19:33.277Z,11.40
2023-01-20T04:22:16.045Z,7.53
2023-01-20T04:24:51.996Z,10.52
2023-01-20T04:27:40.092Z,10.90
2023-01-20T04:30:12.075Z,11.38
2023-01-20T04:32:43.004Z,8.02
2023-01-20T04:35:17.226Z,8.48
2023-01-20T04:37:50.698Z,6.13
2023-01-20T04:40:21.233Z,6.00
2023-01-20T04:42:52.651Z,11.65
2023-01-20T04:45:23.846Z,10.82
2023-01-20T04:47:54.256Z,10.05
2023-01-20T04:50:24.863Z,10.32
2023-01-20T04:53:00.674Z,11.88
2023-01-20T04:55:31.401Z,9.75
2023-01-20T04:58:02.178Z,12.13
2023-01-20T05:00:32.533Z,10.98
2023-01-20T05:03:03.884Z,10.63
2023-01-20T05:05:35.110Z,11.77
2023-01-20T05:08:05.925Z,6.88
2023-01-20T05:10:37.252Z,10.07
2023-01-20T05:13:07.987Z,7.15
2023-01-20T05:15:38.825Z,10.18
2023-01-20T05:18:09.113Z,9.68
2023-01-20T05:20:39.659Z,5.38
2023-01-20T05:23:10.325Z,7.97
2023-01-20T05:25:41.008Z,12.77
2023-01-20T05:28:11.270Z,6.47
2023-01-20T05:30:41.849Z,3.05
2023-01-20T05:33:13.819Z,6.78
2023-01-20T05:35:44.262Z,10.65
2023-01-20T05:38:14.869Z,4.38
2023-01-20T05:40:45.129Z,6.32
2023-01-20T05:43:15.842Z,6.03
2023-01-20T05:45:47.619Z,8.73
2023-01-20T05:48:18.034Z,6.55
2023-01-20T05:50:49.147Z,5.05
2023-01-20T05:53:20.364Z,9.75
2023-01-20T05:55:51.111Z,9.25
2023-01-20T05:58:23.686Z,8.68
2023-01-20T06:00:54.909Z,9.27
2023-01-20T06:03:25.545Z,12.50
2023-01-20T06:06:02.487Z,7.38
2023-01-20T06:08:33.531Z,7.20
2023-01-20T06:11:03.799Z,6.90
2023-01-20T06:13:36.330Z,5.85
2023-01-20T06:16:07.516Z,5.18
2023-01-20T06:18:38.246Z,6.68
2023-01-20T06:21:08.584Z,8.05
2023-01-20T06:23:38.922Z,6.00
2023-01-20T06:26:12.773Z,5.47
2023-01-20T06:28:43.597Z,5.85
2023-01-20T06:31:16.811Z,6.97
2023-01-20T06:33:47.748Z,7.97
2023-01-20T06:36:18.664Z,9.38
2023-01-20T06:38:52.070Z,5.60
2023-01-20T06:41:23.121Z,6.68
2023-01-20T06:43:56.774Z,7.25
2023-01-20T06:46:27.502Z,7.20
2023-01-20T06:49:02.539Z,15.60
2023-01-20T06:51:35.192Z,7.75
2023-01-20T06:54:05.690Z,6.72
2023-01-20T06:56:35.963Z,9.73
2023-01-20T06:59:06.641Z,7.45
2023-01-20T07:01:37.394Z,4.97
2023-01-20T07:04:09.210Z,4.50
2023-01-20T07:06:41.174Z,4.32
2023-01-20T07:09:13.690Z,4.55
2023-01-20T07:11:44.366Z,3.50
2023-01-20T07:14:14.689Z,3.92
2023-01-20T07:16:45.560Z,6.55
2023-01-20T07:19:16.746Z,5.20
2023-01-20T07:21:47.315Z,5.75
2023-01-20T07:24:18.889Z,6.82
2023-01-20T07:26:49.527Z,4.63
2023-01-20T07:29:19.868Z,7.78
2023-01-20T07:31:51.063Z,7.00
2023-01-20T07:34:21.728Z,7.53
2023-01-20T07:36:54.464Z,7.68
2023-01-20T07:39:30.254Z,4.78
2023-01-20T07:42:01.070Z,9.20
2023-01-20T07:44:34.127Z,6.53
2023-01-20T07:47:04.723Z,7.03
2023-01-20T07:49:35.863Z,9.30
2023-01-20T07:52:06.209Z,8.75
2023-01-20T07:54:36.804Z,9.55
2023-01-20T07:57:09.740Z,8.95
2023-01-20T07:59:40.284Z,8.63
2023-01-20T08:02:11.508Z,8.50
2023-01-20T08:04:42.553Z,9.85
2023-01-20T08:07:13.071Z,12.18
2023-01-20T08:09:44.887Z,10.43
2023-01-20T08:12:15.181Z,12.35
2023-01-20T08:14:46.044Z,10.30
2023-01-20T08:17:16.601Z,10.65
2023-01-20T08:19:47.273Z,7.85
2023-01-20T08:22:17.890Z,8.77
2023-01-20T08:24:49.237Z,9.23
2023-01-20T08:27:20.784Z,11.40
2023-01-20T08:29:51.797Z,10.65
2023-01-20T08:32:23.149Z,7.38
2023-01-20T08:34:53.712Z,6.25
2023-01-20T08:37:24.701Z,9.93
2023-01-20T08:39:55.540Z,7.82
2023-01-20T08:42:26.012Z,12.25
2023-01-20T08:44:56.676Z,10.43
2023-01-20T08:47:27.841Z,10.55
2023-01-20T08:49:58.357Z,13.32
2023-01-20T08:52:29.586Z,13.02
2023-01-20T08:55:00.360Z,9.23
2023-01-20T08:57:31.026Z,9.57
2023-01-20T09:00:01.607Z,11.32
2023-01-20T09:02:33.359Z,16.60
2023-01-20T09:05:06.088Z,12.32
2023-01-20T09:07:37.107Z,11.18
2023-01-20T09:10:08.411Z,12.93
2023-01-20T09:12:39.334Z,12.25
2023-01-20T09:15:11.147Z,15.38
2023-01-20T09:17:41.794Z,12.73
2023-01-20T09:20:12.892Z,13.77
2023-01-20T09:22:43.501Z,11.35
2023-01-20T09:25:14.214Z,12.70
2023-01-20T09:27:46.960Z,12.82
2023-01-20T09:30:18.176Z,14.55
2023-01-20T09:32:54.163Z,13.60
2023-01-20T09:35:24.890Z,12.10
2023-01-20T09:38:14.080Z,11.13
2023-01-20T09:41:30.869Z,17.67
2023-01-20T09:44:16.793Z,12.25
2023-01-20T09:47:20.724Z,11.98
2023-01-20T09:50:18.591Z,12.27
2023-01-20T09:53:05.746Z,17.35
2023-01-20T09:55:44.811Z,13.93
2023-01-20T09:58:46.172Z,26.08
2023-01-20T10:01:25.330Z,19.48
2023-01-20T10:04:14.802Z,15.32
2023-01-20T10:07:46.433Z,15.70
2023-01-20T10:10:21.680Z,17.42
2023-01-20T10:12:57.498Z,20.83
2023-01-20T10:15:33.611Z,15.93
2023-01-20T10:18:17.493Z,13.13
2023-01-20T10:21:13.561Z,11.65
2023-01-20T10:23:57.860Z,22.33
2023-01-20T10:26:28.447Z,25.10
2023-01-20T10:29:02.335Z,21.63
2023-01-20T10:31:40.199Z,16.98
2023-01-20T10:34:14.507Z,13.23
2023-01-20T10:36:47.497Z,14.50
2023-01-20T10:39:36.699Z,17.88
2023-01-20T10:42:14.217Z,13.15
2023-01-20T10:44:47.523Z,11.02
2023-01-20T10:47:48.506Z,12.05
2023-01-20T10:50:33.461Z,18.95
2023-01-20T10:53:13.478Z,18.25
2023-01-20T10:56:13.597Z,13.82
2023-01-20T10:58:46.211Z,29.13
2023-01-20T11:01:20.778Z,18.42
2023-01-20T11:03:51.145Z,15.02
2023-01-20T11:06:26.195Z,16.60
2023-01-20T11:08:57.388Z,11.90
2023-01-20T11:11:30.406Z,13.70
2023-01-20T11:14:05.086Z,11.88
2023-01-20T11:16:37.045Z,15.55
2023-01-20T11:19:10.878Z,15.00
2023-01-20T11:21:42.500Z,14.45
2023-01-20T11:24:33.533Z,13.93
2023-01-20T11:27:08.675Z,19.95
2023-01-20T11:29:44.844Z,17.80
2023-01-20T11:32:36.744Z,14.68
2023-01-20T11:35:26.020Z,16.20
2023-01-20T11:37:58.688Z,19.33
2023-01-20T11:40:30.279Z,15.85
2023-01-20T11:43:00.892Z,14.70
2023-01-20T11:45:35.516Z,16.52
2023-01-20T11:48:16.481Z,15.20
2023-01-20T11:50:59.451Z,17.52
2023-01-20T11:53:33.156Z,14.57
2023-01-20T11:56:20.267Z,17.85
2023-01-20T11:59:02.882Z,16.48
2023-01-20T12:02:17.091Z,20.67
2023-01-20T12:05:05.617Z,14.48
2023-01-20T12:07:39.085Z,17.65
2023-01-20T12:10:22.329Z,12.43
2023-01-20T12:12:54.245Z,14.35
2023-01-20T12:15:30.836Z,11.93
2023-01-20T12:18:12.644Z,14.95
2023-01-20T12:20:55.482Z,19.60
2023-01-20T12:23:46.675Z,14.77
2023-01-20T12:26:20.195Z,16.38
2023-01-20T12:29:19.186Z,12.35
2023-01-20T12:31:50.478Z,13.75
2023-01-20T12:34:29.337Z,13.70
2023-01-20T12:37:39.836Z,12.18
2023-01-20T12:40:21.909Z,14.10
2023-01-20T12:43:38.232Z,17.27
2023-01-20T12:46:11.812Z,10.48
2023-01-20T12:48:50.913Z,12.32
2023-01-20T12:51:36.957Z,9.52
2023-01-20T12:54:55.354Z,7.03
2023-01-20T12:57:58.874Z,8.73
2023-01-20T13:00:43.644Z,12.82
2023-01-20T13:03:32.723Z,10.93
2023-01-20T13:06:29.037Z,10.38
2023-01-20T13:09:30.102Z,8.98
2023-01-20T13:12:06.002Z,8.63
2023-01-20T13:14:49.221Z,11.65
2023-01-20T13:17:26.815Z,7.35
2023-01-20T13:19:59.982Z,9.88
2023-01-20T13:22:31.244Z,10.93
2023-01-20T13:25:05.741Z,6.28
2023-01-20T13:27:38.097Z,5.82
2023-01-20T13:30:12.451Z,7.30
2023-01-20T13:32:46.645Z,6.22
2023-01-20T13:35:28.546Z,5.43
2023-01-20T13:38:02.953Z,8.13
2023-01-20T13:40:39.887Z,8.25
2023-01-20T13:43:45.067Z,8.52
2023-01-20T13:46:18.043Z,6.35
2023-01-20T13:49:24.144Z,11.75
2023-01-20T13:51:55.064Z,5.93
2023-01-20T13:54:35.144Z,9.45
2023-01-20T13:57:35.482Z,9.80
2023-01-20T14:00:13.791Z,10.23
2023-01-20T14:02:44.669Z,11.95
2023-01-20T14:05:31.153Z,12.30
2023-01-20T14:08:02.116Z,14.38
2023-01-20T14:10:33.195Z,10.98
2023-01-20T14:13:14.077Z,9.80
2023-01-20T14:15:44.916Z,9.95
2023-01-20T14:18:17.553Z,9.73
2023-01-20T14:21:24.443Z,11.60
2023-01-20T14:23:58.471Z,11.45
2023-01-20T14:26:32.347Z,12.73
2023-01-20T14:29:04.286Z,11.60
2023-01-20T14:31:44.807Z,13.32
2023-01-20T14:34:34.590Z,9.50
2023-01-20T14:37:36.447Z,12.77
2023-01-20T14:40:27.099Z,11.15
2023-01-20T14:43:02.375Z,12.25
2023-01-20T14:45:34.805Z,12.52
2023-01-20T14:48:07.294Z,10.55
2023-01-20T14:50:39.638Z,12.52
2023-01-20T14:53:14.936Z,13.18
2023-01-20T14:56:00.500Z,7.57
2023-01-20T14:58:31.622Z,13.80
2023-01-20T15:01:05.241Z,14.00
2023-01-20T15:03:35.930Z,11.15
2023-01-20T15:06:12.125Z,9.27
2023-01-20T15:09:04.423Z,5.63
2023-01-20T15:11:37.441Z,6.65
2023-01-20T15:14:09.911Z,9.75
2023-01-20T15:16:48.215Z,10.35
2023-01-20T15:19:30.777Z,11.10
2023-01-20T15:22:22.733Z,8.10
2023-01-20T15:24:53.764Z,7.60
2023-01-20T15:27:34.948Z,7.28
2023-01-20T15:30:25.206Z,9.57
2023-01-20T15:32:57.029Z,8.48
2023-01-20T15:35:27.967Z,7.38
2023-01-20T15:37:59.131Z,8.43
2023-01-20T15:40:30.116Z,10.05
2023-01-20T15:43:00.240Z,7.65
2023-01-20T15:45:30.789Z,8.70
2023-01-20T15:48:01.367Z,9.90
2023-01-20T15:50:32.544Z,8.90
2023-01-20T15:53:04.394Z,9.43
2023-01-20T15:55:35.884Z,8.98
2023-01-20T15:58:24.425Z,6.47
2023-01-20T16:00:58.979Z,7.65
2023-01-20T16:03:30.254Z,7.00
2023-01-20T16:06:00.908Z,10.43
2023-01-20T16:08:39.203Z,6.78
2023-01-20T16:11:13.150Z,7.32
2023-01-20T16:13:44.064Z,9.45
2023-01-20T16:16:16.058Z,5.45
2023-01-20T16:18:47.210Z,8.00
2023-01-20T16:21:19.664Z,7.45
2023-01-20T16:23:50.814Z,7.53
2023-01-20T16:26:27.794Z,7.93
2023-01-20T16:28:59.196Z,7.55
2023-01-20T16:31:30.275Z,8.07
2023-01-20T16:34:00.991Z,7.72
2023-01-20T16:36:31.318Z,8.85
2023-01-20T16:39:02.183Z,5.45
2023-01-20T16:41:33.524Z,9.18
2023-01-20T16:44:04.356Z,3.53
2023-01-20T16:46:35.379Z,4.07
2023-01-20T16:49:09.164Z,7.13
2023-01-20T16:51:40.018Z,4.53
2023-01-20T16:54:12.143Z,5.05
2023-01-20T16:56:42.615Z,6.28
2023-01-20T16:59:13.252Z,3.80
2023-01-20T17:01:49.918Z,5.28
2023-01-20T17:04:20.493Z,5.63
2023-01-20T17:06:53.859Z,4.70
2023-01-20T17:09:24.099Z,5.50
2023-01-20T17:11:54.624Z,6.43
2023-01-20T17:14:27.292Z,4.32
2023-01-20T17:17:00.894Z,9.27
2023-01-20T17:19:31.679Z,6.30
2023-01-20T17:22:02.280Z,5.38
2023-01-20T17:24:36.183Z,6.05
2023-01-20T17:27:06.805Z,8.35
2023-01-20T17:29:37.116Z,7.57
2023-01-20T17:32:07.925Z,7.03
2023-01-20T17:34:38.487Z,6.97
2023-01-20T17:37:08.724Z,7.40
2023-01-20T17:39:38.941Z,6.57
2023-01-20T17:42:10.034Z,7.40
2023-01-20T17:44:40.622Z,5.63
2023-01-20T17:47:10.857Z,5.45
2023-01-20T17:50:00.315Z,5.22
2023-01-20T17:52:30.663Z,4.82
2023-01-20T17:55:01.475Z,5.93
2023-01-20T17:57:33.455Z,9.07
2023-01-20T18:00:06.292Z,4.63
2023-01-20T18:02:37.142Z,9.73
2023-01-20T18:05:07.835Z,6.25
2023-01-20T18:07:38.938Z,5.35
2023-01-20T18:10:09.915Z,7.03
2023-01-20T18:12:40.678Z,5.68
2023-01-20T18:15:12.477Z,7.85
2023-01-20T18:17:44.311Z,6.57
2023-01-20T18:20:16.034Z,6.25
2023-01-20T18:22:51.264Z,4.93
2023-01-20T18:25:21.678Z,6.90
2023-01-20T18:27:51.982Z,7.25
2023-01-20T18:30:22.597Z,6.78
2023-01-20T18:33:11.263Z,7.57
2023-01-20T18:35:43.504Z,4.85
2023-01-20T18:38:13.775Z,6.18
2023-01-20T18:40:44.366Z,5.45
2023-01-20T18:43:14.649Z,8.45
2023-01-20T18:45:45.254Z,6.50
2023-01-20T18:48:15.842Z,7.13
2023-01-20T18:50:46.098Z,7.55
2023-01-20T18:53:17.341Z,10.05
2023-01-20T18:55:47.886Z,9.95
2023-01-20T18:58:18.463Z,11.07
2023-01-20T19:00:49.226Z,9.00
2023-01-20T19:03:20.083Z,7.82
2023-01-20T19:05:50.324Z,7.60
2023-01-20T19:08:22.960Z,11.20
2023-01-20T19:10:53.677Z,8.25
2023-01-20T19:13:24.554Z,12.60
2023-01-20T19:15:55.390Z,12.30
2023-01-20T19:18:26.128Z,10.32
2023-01-20T19:20:56.482Z,10.70
2023-01-20T19:23:27.274Z,10.40
2023-01-20T19:26:08.069Z,11.70
2023-01-20T19:28:39.011Z,12.43
2023-01-20T19:31:11.198Z,10.02
2023-01-20T19:33:41.797Z,11.48
2023-01-20T19:36:15.185Z,14.75
2023-01-20T19:38:45.880Z,8.27
2023-01-20T19:41:18.942Z,10.63
2023-01-20T19:43:55.757Z,12.80
2023-01-20T19:46:28.385Z,10.02
2023-01-20T19:48:59.905Z,7.82
2023-01-20T19:51:32.377Z,10.35
2023-01-20T19:54:03.374Z,10.60
2023-01-20T19:56:35.952Z,10.95
2023-01-20T19:59:10.037Z,16.95
2023-01-20T20:01:41.019Z,12.73
2023-01-20T20:04:13.994Z,14.48
2023-01-20T20:06:48.703Z,10.10
2023-01-20T20:09:21.677Z,12.07
2023-01-20T20:11:52.138Z,7.78
2023-01-20T20:14:23.912Z,10.50
2023-01-20T20:16:54.823Z,10.40
2023-01-20T20:19:27.821Z,13.70
2023-01-20T20:21:59.538Z,11.48
2023-01-20T20:24:30.054Z,10.55
2023-01-20T20:27:00.418Z,15.13
2023-01-20T20:29:31.613Z,12.48
2023-01-20T20:32:02.654Z,10.88
2023-01-20T20:34:34.361Z,14.23
2023-01-20T20:37:04.642Z,10.93
2023-01-20T20:39:35.769Z,9.82
2023-01-20T20:42:06.167Z,11.50
2023-01-20T20:44:36.755Z,10.23
2023-01-20T20:47:07.600Z,13.27
2023-01-20T20:49:37.972Z,9.93
2023-01-20T20:52:11.805Z,11.23
2023-01-20T20:54:42.576Z,11.45
2023-01-20T20:57:13.205Z,12.65
2023-01-20T20:59:58.262Z,9.95
2023-01-20T21:02:29.658Z,8.07
2023-01-20T21:04:59.994Z,8.40
2023-01-20T21:07:30.255Z,9.38
2023-01-20T21:10:00.575Z,11.45
2023-01-20T21:12:30.849Z,7.70
2023-01-20T21:15:01.501Z,8.10
2023-01-20T21:17:32.090Z,8.45
2023-01-20T21:20:05.169Z,6.78
2023-01-20T21:22:35.916Z,7.15
2023-01-20T21:25:07.125Z,10.48
2023-01-20T21:27:40.614Z,8.07
2023-01-20T21:30:12.378Z,9.40
2023-01-20T21:32:43.013Z,9.98
2023-01-20T21:35:13.437Z,7.75
2023-01-20T21:37:44.375Z,9.82
2023-01-20T21:40:15.202Z,9.95
2023-01-20T21:42:46.718Z,7.43
2023-01-20T21:45:17.289Z,8.57
2023-01-20T21:47:47.759Z,14.10
2023-01-20T21:50:36.830Z,12.27
2023-01-20T21:53:07.072Z,10.90
2023-01-20T21:55:38.512Z,12.98
2023-01-20T21:58:11.290Z,19.25
2023-01-20T22:00:44.546Z,12.43
2023-01-20T22:03:15.559Z,16.98
2023-01-20T22:05:46.650Z,15.80
2023-01-20T22:08:19.929Z,14.27
2023-01-20T22:11:00.770Z,18.10
2023-01-20T22:13:31.249Z,14.50
2023-01-20T22:16:05.826Z,14.65
2023-01-20T22:18:36.180Z,15.32
2023-01-20T22:21:07.898Z,11.57
2023-01-20T22:23:38.359Z,9.85
2023-01-20T22:26:11.893Z,10.90
2023-01-20T22:28:42.222Z,12.88
2023-01-20T22:31:24.268Z,10.05
2023-01-20T22:33:59.372Z,13.23
2023-01-20T22:36:29.653Z,16.08
2023-01-20T22:39:00.564Z,9.23
2023-01-20T22:41:30.972Z,16.30
2023-01-20T22:44:01.398Z,17.83
2023-01-20T22:46:32.271Z,12.88
2023-01-20T22:49:02.547Z,12.80
2023-01-20T22:51:33.225Z,14.25
2023-01-20T22:54:08.445Z,11.93
2023-01-20T22:56:40.390Z,11.57
2023-01-20T22:59:14.261Z,14.07
2023-01-20T23:01:45.531Z,13.50
2023-01-20T23:04:16.467Z,13.77
2023-01-20T23:06:46.657Z,16.33
2023-01-20T23:09:17.258Z,13.25
2023-01-20T23:11:49.049Z,18.48
2023-01-20T23:14:39.455Z,14.75
2023-01-20T23:17:09.996Z,14.98
2023-01-20T23:19:40.475Z,14.95
2023-01-20T23:22:11.038Z,15.43
2023-01-20T23:24:41.346Z,14.40
2023-01-20T23:27:11.720Z,11.60
2023-01-20T23:29:42.703Z,11.68
2023-01-20T23:32:13.298Z,13.15
2023-01-20T23:34:43.963Z,14.98
2023-01-20T23:37:14.681Z,14.63
2023-01-20T23:39:44.932Z,12.35
2023-01-20T23:42:16.321Z,13.07
2023-01-20T23:44:48.133Z,12.77
2023-01-20T23:47:18.627Z,16.33
2023-01-20T23:49:49.285Z,13.70
2023-01-20T23:52:21.232Z,16.73
2023-01-20T23:54:51.998Z,13.77
2023-01-20T23:57:23.823Z,13.30
2023-01-20T23:59:54.599Z,16.02
